createdAt,value
2019-03-31T00:01:12.145Z,101228.89
2019-03-31T00:03:47.737Z,101230.74
2019-03-31T00:06:24.102Z,101229.56
2019-03-31T00:08:59.372Z,101230.81
2019-03-31T00:11:34.151Z,101230.96
2019-03-31T00:14:08.605Z,101226.41
2019-03-31T00:16:43.486Z,101226.52
2019-03-31T00:19:18.556Z,101229.62
2019-03-31T00:21:53.032Z,101228.88
2019-03-31T00:24:27.556Z,101235.86
2019-03-31T00:27:02.242Z,101234.30
2019-03-31T00:29:37.185Z,101239.99
2019-03-31T00:32:13.992Z,101239.20
2019-03-31T00:34:50.011Z,101231.05
2019-03-31T00:37:26.480Z,101233.31
2019-03-31T00:40:00.858Z,101232.24
2019-03-31T00:42:35.430Z,101229.25
2019-03-31T00:45:10.666Z,101231.14
2019-03-31T00:47:45.474Z,101235.53
2019-03-31T00:50:19.907Z,101240.43
2019-03-31T00:52:54.817Z,101239.75
2019-03-31T00:55:29.619Z,101231.68
2019-03-31T00:58:04.831Z,101231.68
2019-03-31T01:00:57.251Z,101238.66
2019-03-31T01:03:35.211Z,101240.25
2019-03-31T01:06:10.167Z,101246.38
2019-03-31T01:08:45.021Z,101245.66
2019-03-31T01:11:27.559Z,101241.97
2019-03-31T01:14:03.180Z,101239.99
2019-03-31T01:16:39.571Z,101236.77
2019-03-31T01:19:14.593Z,101236.39
2019-03-31T01:21:50.949Z,101236.44
2019-03-31T01:24:25.518Z,101241.60
2019-03-31T01:27:00.408Z,101239.20
2019-03-31T01:29:34.967Z,101246.20
2019-03-31T01:32:09.560Z,101251.48
2019-03-31T01:34:44.089Z,101252.45
2019-03-31T01:37:20.222Z,101253.37
2019-03-31T01:39:55.258Z,101255.62
2019-03-31T01:42:32.058Z,101254.37
2019-03-31T01:45:06.758Z,101253.17
2019-03-31T01:47:41.570Z,101255.75
2019-03-31T01:50:17.759Z,101260.16
2019-03-31T01:52:54.229Z,101261.53
2019-03-31T01:55:38.297Z,101260.78
2019-03-31T01:58:13.002Z,101263.91
2019-03-31T02:00:56.137Z,101259.66
2019-03-31T02:03:31.181Z,101262.70
2019-03-31T02:06:05.951Z,101267.47
2019-03-31T02:08:40.399Z,101265.28
2019-03-31T02:11:14.988Z,101268.34
2019-03-31T02:13:49.429Z,101271.42
2019-03-31T02:16:24.971Z,101274.00
2019-03-31T02:18:59.555Z,101279.69
2019-03-31T02:21:35.712Z,101284.52
2019-03-31T02:24:11.878Z,101273.28
2019-03-31T02:26:46.717Z,101272.88
2019-03-31T02:29:21.148Z,101283.72
2019-03-31T02:31:56.023Z,101279.92
2019-03-31T02:34:30.509Z,101279.59
2019-03-31T02:37:05.436Z,101286.53
2019-03-31T02:39:40.116Z,101283.49
2019-03-31T02:42:14.993Z,101279.62
2019-03-31T02:44:49.441Z,101283.49
2019-03-31T02:47:24.003Z,101277.09
2019-03-31T02:49:59.961Z,101278.19
2019-03-31T02:52:34.643Z,101280.48
2019-03-31T02:55:09.414Z,101283.27
2019-03-31T02:57:45.010Z,101281.98
2019-03-31T03:00:19.368Z,101285.78
2019-03-31T03:02:53.973Z,101289.59
2019-03-31T03:05:30.556Z,101295.20
2019-03-31T03:08:09.177Z,101302.14
2019-03-31T03:10:45.985Z,101294.52
2019-03-31T03:13:23.155Z,101298.05
2019-03-31T03:16:26.736Z,101298.27
2019-03-31T03:19:02.932Z,101303.50
2019-03-31T03:21:37.545Z,101306.71
2019-03-31T03:24:13.824Z,101307.13
2019-03-31T03:26:50.158Z,101313.64
2019-03-31T03:29:24.828Z,101322.48
2019-03-31T03:31:59.830Z,101330.62
2019-03-31T03:34:34.647Z,101331.08
2019-03-31T03:37:09.417Z,101331.67
2019-03-31T03:39:45.892Z,101334.73
2019-03-31T03:42:20.228Z,101332.31
2019-03-31T03:44:54.658Z,101336.21
2019-03-31T03:47:30.985Z,101340.42
2019-03-31T03:50:05.643Z,101339.53
2019-03-31T03:52:40.247Z,101342.91
2019-03-31T03:55:14.990Z,101347.98
2019-03-31T03:57:49.569Z,101352.78
2019-03-31T04:00:25.674Z,101353.92
2019-03-31T04:03:03.183Z,101360.82
2019-03-31T04:05:39.524Z,101360.16
2019-03-31T04:08:14.459Z,101358.82
2019-03-31T04:11:14.429Z,101369.63
2019-03-31T04:13:49.084Z,101371.98
2019-03-31T04:16:23.680Z,101378.23
2019-03-31T04:18:58.621Z,101386.25
2019-03-31T04:21:35.007Z,101393.42
2019-03-31T04:24:09.582Z,101392.41
2019-03-31T04:26:46.231Z,101396.55
2019-03-31T04:29:20.727Z,101406.06
2019-03-31T04:31:55.242Z,101412.78
2019-03-31T04:34:29.888Z,101408.40
2019-03-31T04:37:07.374Z,101413.41
2019-03-31T04:39:43.425Z,101416.09
2019-03-31T04:42:18.027Z,101420.03
2019-03-31T04:44:52.617Z,101418.70
2019-03-31T04:47:27.208Z,101424.31
2019-03-31T04:50:01.641Z,101427.94
2019-03-31T04:52:36.474Z,101431.98
2019-03-31T04:55:12.346Z,101437.44
2019-03-31T04:57:46.844Z,101437.41
2019-03-31T05:00:21.444Z,101434.48
2019-03-31T05:02:56.391Z,101436.75
2019-03-31T05:05:30.900Z,101441.73
2019-03-31T05:08:05.772Z,101443.09
2019-03-31T05:10:40.385Z,101446.96
2019-03-31T05:13:15.269Z,101448.11
2019-03-31T05:15:50.041Z,101449.92
2019-03-31T05:18:24.515Z,101454.20
2019-03-31T05:20:59.111Z,101459.72
2019-03-31T05:23:33.590Z,101463.20
2019-03-31T05:26:08.551Z,101465.05
2019-03-31T05:28:44.306Z,101466.75
2019-03-31T05:31:20.767Z,101473.97
2019-03-31T05:33:57.453Z,101481.29
2019-03-31T05:36:32.251Z,101479.22
2019-03-31T05:39:08.793Z,101482.36
2019-03-31T05:41:43.476Z,101479.30
2019-03-31T05:44:17.996Z,101484.80
2019-03-31T05:46:52.523Z,101492.81
2019-03-31T05:49:27.030Z,101491.61
2019-03-31T05:52:01.575Z,101486.55
2019-03-31T05:54:36.203Z,101494.30
2019-03-31T05:57:10.613Z,101495.13
2019-03-31T05:59:45.370Z,101497.02
2019-03-31T06:02:20.564Z,101501.84
2019-03-31T06:04:55.114Z,101504.55
2019-03-31T06:07:29.881Z,101509.97
2019-03-31T06:10:04.918Z,101509.55
2019-03-31T06:12:41.247Z,101520.28
2019-03-31T06:15:17.331Z,101521.23
2019-03-31T06:17:51.969Z,101521.57
2019-03-31T06:20:28.364Z,101514.20
2019-03-31T06:23:03.151Z,101510.47
2019-03-31T06:25:37.919Z,101519.84
2019-03-31T06:28:12.341Z,101524.53
2019-03-31T06:30:47.009Z,101524.50
2019-03-31T06:33:21.627Z,101528.20
2019-03-31T06:35:56.455Z,101524.55
2019-03-31T06:38:31.095Z,101524.48
2019-03-31T06:41:05.480Z,101527.50
2019-03-31T06:43:40.836Z,101535.59
2019-03-31T06:46:15.211Z,101542.84
2019-03-31T06:48:51.558Z,101543.34
2019-03-31T06:51:25.919Z,101538.26
2019-03-31T06:54:03.989Z,101538.42
2019-03-31T06:56:40.285Z,101541.28
2019-03-31T06:59:17.211Z,101537.08
2019-03-31T07:01:51.687Z,101540.98
2019-03-31T07:04:26.262Z,101539.98
2019-03-31T07:07:02.869Z,101542.59
2019-03-31T07:09:37.905Z,101546.02
2019-03-31T07:12:12.869Z,101545.47
2019-03-31T07:14:47.474Z,101546.00
2019-03-31T07:17:22.039Z,101548.11
2019-03-31T07:19:56.687Z,101554.74
2019-03-31T07:22:32.695Z,101566.41
2019-03-31T07:25:08.978Z,101561.77
2019-03-31T07:27:43.828Z,101567.38
2019-03-31T07:30:19.693Z,101578.77
2019-03-31T07:32:54.153Z,101578.97
2019-03-31T07:35:29.088Z,101586.53
2019-03-31T07:38:03.573Z,101585.45
2019-03-31T07:40:38.447Z,101591.05
2019-03-31T07:43:13.376Z,101592.16
2019-03-31T07:45:47.964Z,101599.91
2019-03-31T07:48:22.577Z,101601.20
2019-03-31T07:50:57.630Z,101603.65
2019-03-31T07:53:32.213Z,101608.09
2019-03-31T07:56:06.811Z,101607.05
2019-03-31T07:58:41.285Z,101604.03
2019-03-31T08:01:15.717Z,101606.41
2019-03-31T08:03:50.129Z,101599.33
2019-03-31T08:06:24.589Z,101602.74
2019-03-31T08:08:58.943Z,101609.91
2019-03-31T08:11:33.392Z,101603.98
2019-03-31T08:14:07.962Z,101604.36
2019-03-31T08:16:42.463Z,101610.31
2019-03-31T08:19:16.951Z,101611.76
2019-03-31T08:21:51.609Z,101616.37
2019-03-31T08:24:26.270Z,101619.63
2019-03-31T08:27:00.888Z,101614.77
2019-03-31T08:29:36.425Z,101611.16
2019-03-31T08:32:13.297Z,101618.47
2019-03-31T08:34:48.188Z,101617.80
2019-03-31T08:37:25.000Z,101625.98
2019-03-31T08:39:59.944Z,101619.03
2019-03-31T08:42:34.786Z,101625.38
2019-03-31T08:45:10.307Z,101629.15
2019-03-31T08:47:44.872Z,101629.05
2019-03-31T08:50:20.082Z,101636.75
2019-03-31T08:52:54.601Z,101648.18
2019-03-31T08:55:29.034Z,101644.69
2019-03-31T08:58:03.594Z,101647.64
2019-03-31T09:00:51.275Z,101647.29
2019-03-31T09:03:26.115Z,101651.47
2019-03-31T09:06:02.439Z,101653.00
2019-03-31T09:08:40.096Z,101661.02
2019-03-31T09:11:16.827Z,101658.22
2019-03-31T09:13:51.271Z,101659.64
2019-03-31T09:16:25.773Z,101663.98
2019-03-31T09:19:00.451Z,101658.45
2019-03-31T09:21:35.004Z,101659.31
2019-03-31T09:24:09.565Z,101663.88
2019-03-31T09:26:45.922Z,101665.08
2019-03-31T09:29:20.653Z,101668.18
2019-03-31T09:31:55.224Z,101671.19
2019-03-31T09:34:30.060Z,101675.92
2019-03-31T09:37:04.741Z,101679.75
2019-03-31T09:39:42.978Z,101681.14
2019-03-31T09:42:17.706Z,101683.89
2019-03-31T09:44:52.373Z,101677.96
2019-03-31T09:47:27.039Z,101680.02
2019-03-31T09:50:04.451Z,101681.92
2019-03-31T09:52:38.917Z,101678.33
2019-03-31T09:55:15.215Z,101687.98
2019-03-31T09:57:51.273Z,101687.70
2019-03-31T10:00:48.804Z,101687.22
2019-03-31T10:03:25.322Z,101684.41
2019-03-31T10:06:10.782Z,101678.45
2019-03-31T10:08:37.215Z,101682.35
2019-03-31T10:11:13.568Z,101679.30
2019-03-31T10:13:50.456Z,101683.72
2019-03-31T10:16:29.993Z,101678.17
2019-03-31T10:19:07.491Z,101678.31
2019-03-31T10:21:43.340Z,101678.04
2019-03-31T10:24:22.253Z,101679.83
2019-03-31T10:26:57.227Z,101670.98
2019-03-31T10:29:32.327Z,101665.45
2019-03-31T10:32:07.188Z,101667.90
2019-03-31T10:34:41.900Z,101671.77
2019-03-31T10:37:17.545Z,101669.79
2019-03-31T10:39:55.141Z,101665.23
2019-03-31T10:42:29.664Z,101667.61
2019-03-31T10:45:04.260Z,101662.67
2019-03-31T10:47:40.605Z,101664.84
2019-03-31T10:50:15.672Z,101661.63
2019-03-31T10:52:50.623Z,101661.20
2019-03-31T10:55:25.130Z,101664.16
2019-03-31T10:57:59.778Z,101665.69
2019-03-31T11:00:39.130Z,101664.80
2019-03-31T11:03:16.442Z,101659.33
2019-03-31T11:05:51.033Z,101664.83
2019-03-31T11:08:25.753Z,101656.13
2019-03-31T11:11:43.374Z,101664.31
2019-03-31T11:14:18.737Z,101677.22
2019-03-31T11:16:53.220Z,101670.16
2019-03-31T11:19:29.217Z,101674.31
2019-03-31T11:22:17.829Z,101669.35
2019-03-31T11:24:54.550Z,101666.34
2019-03-31T11:27:29.318Z,101679.42
2019-03-31T11:30:04.097Z,101680.52
2019-03-31T11:32:38.961Z,101682.69
2019-03-31T11:35:14.095Z,101680.55
2019-03-31T11:37:50.198Z,101686.12
2019-03-31T11:40:24.657Z,101682.84
2019-03-31T11:43:52.356Z,101679.50
2019-03-31T11:46:28.274Z,101668.31
2019-03-31T11:49:03.217Z,101683.90
2019-03-31T11:51:39.646Z,101675.38
2019-03-31T11:54:15.467Z,101677.83
2019-03-31T11:56:51.631Z,101678.55
2019-03-31T11:59:27.691Z,101675.44
2019-03-31T12:02:02.438Z,101680.45
2019-03-31T12:04:37.141Z,101692.09
2019-03-31T12:07:12.064Z,101678.12
2019-03-31T12:09:47.653Z,101675.34
2019-03-31T12:12:22.959Z,101685.61
2019-03-31T12:15:00.640Z,101685.95
2019-03-31T12:17:33.597Z,101694.50
2019-03-31T12:20:08.341Z,101687.84
2019-03-31T12:22:43.082Z,101688.89
2019-03-31T12:25:19.897Z,101684.61
2019-03-31T12:27:54.089Z,101682.03
2019-03-31T12:30:31.875Z,101678.77
2019-03-31T12:33:06.532Z,101679.56
2019-03-31T12:35:41.429Z,101677.87
2019-03-31T12:38:16.166Z,101680.11
2019-03-31T12:40:50.559Z,101682.96
2019-03-31T12:43:25.474Z,101682.12
2019-03-31T12:46:01.683Z,101679.10
2019-03-31T12:48:36.407Z,101683.66
2019-03-31T12:51:11.478Z,101680.59
2019-03-31T12:53:46.010Z,101680.94
2019-03-31T12:56:20.846Z,101677.37
2019-03-31T12:58:55.569Z,101671.59
2019-03-31T13:01:30.270Z,101669.03
2019-03-31T13:04:04.720Z,101665.42
2019-03-31T13:06:39.367Z,101667.08
2019-03-31T13:09:15.702Z,101670.52
2019-03-31T13:11:50.580Z,101674.22
2019-03-31T13:14:25.552Z,101669.62
2019-03-31T13:17:01.793Z,101671.97
2019-03-31T13:19:36.869Z,101669.83
2019-03-31T13:22:11.510Z,101663.59
2019-03-31T13:24:46.355Z,101664.16
2019-03-31T13:27:21.152Z,101664.25
2019-03-31T13:29:56.191Z,101664.55
2019-03-31T13:32:30.641Z,101657.61
2019-03-31T13:35:09.038Z,101661.25
2019-03-31T13:37:43.706Z,101665.00
2019-03-31T13:40:18.351Z,101658.91
2019-03-31T13:42:54.591Z,101655.22
2019-03-31T13:45:29.221Z,101659.84
2019-03-31T13:48:04.573Z,101657.68
2019-03-31T13:50:39.377Z,101654.55
2019-03-31T13:53:16.299Z,101649.46
2019-03-31T13:55:51.334Z,101647.29
2019-03-31T13:58:27.966Z,101645.77
2019-03-31T14:01:02.432Z,101652.70
2019-03-31T14:03:38.728Z,101647.16
2019-03-31T14:06:13.262Z,101653.13
2019-03-31T14:08:48.165Z,101647.78
2019-03-31T14:11:24.624Z,101648.91
2019-03-31T14:14:01.208Z,101642.53
2019-03-31T14:16:35.814Z,101644.56
2019-03-31T14:19:13.123Z,101646.03
2019-03-31T14:21:47.800Z,101645.73
2019-03-31T14:24:22.493Z,101640.87
2019-03-31T14:26:59.271Z,101644.88
2019-03-31T14:29:33.877Z,101641.56
2019-03-31T14:32:10.162Z,101642.50
2019-03-31T14:34:45.749Z,101646.35
2019-03-31T14:37:20.388Z,101646.02
2019-03-31T14:39:54.805Z,101642.20
2019-03-31T14:42:29.214Z,101655.97
2019-03-31T14:45:03.645Z,101652.14
2019-03-31T14:47:41.711Z,101647.78
2019-03-31T14:50:30.202Z,101652.84
2019-03-31T14:53:04.813Z,101649.92
2019-03-31T14:55:39.582Z,101642.50
2019-03-31T14:58:14.123Z,101648.13
2019-03-31T15:00:48.656Z,101648.36
2019-03-31T15:03:23.285Z,101645.11
2019-03-31T15:05:59.831Z,101650.34
2019-03-31T15:08:35.708Z,101649.42
2019-03-31T15:11:10.261Z,101642.15
2019-03-31T15:13:46.431Z,101647.13
2019-03-31T15:16:20.817Z,101648.36
2019-03-31T15:18:55.445Z,101640.33
2019-03-31T15:21:31.399Z,101645.58
2019-03-31T15:24:06.036Z,101630.96
2019-03-31T15:26:40.663Z,101637.95
2019-03-31T15:29:15.220Z,101637.47
2019-03-31T15:31:50.264Z,101644.53
2019-03-31T15:34:24.719Z,101646.13
2019-03-31T15:37:00.186Z,101647.27
2019-03-31T15:39:34.842Z,101642.31
2019-03-31T15:42:09.500Z,101649.12
2019-03-31T15:44:44.001Z,101644.41
2019-03-31T15:47:18.561Z,101645.77
2019-03-31T15:49:53.156Z,101644.59
2019-03-31T15:52:27.728Z,101642.55
2019-03-31T15:55:02.436Z,101640.44
2019-03-31T15:57:37.176Z,101643.73
2019-03-31T16:00:12.380Z,101645.78
2019-03-31T16:02:46.872Z,101645.70
2019-03-31T16:05:23.327Z,101642.38
2019-03-31T16:07:57.420Z,101643.89
2019-03-31T16:10:31.443Z,101653.52
2019-03-31T16:13:05.093Z,101650.82
2019-03-31T16:15:38.823Z,101650.14
2019-03-31T16:18:12.496Z,101651.84
2019-03-31T16:20:46.886Z,101654.47
2019-03-31T16:23:20.511Z,101650.69
2019-03-31T16:25:56.832Z,101649.63
2019-03-31T16:28:31.888Z,101654.33
2019-03-31T16:31:06.628Z,101651.59
2019-03-31T16:33:41.131Z,101647.17
2019-03-31T16:36:16.394Z,101653.53
2019-03-31T16:38:52.144Z,101654.46
2019-03-31T16:41:25.775Z,101661.54
2019-03-31T16:43:59.802Z,101657.05
2019-03-31T16:46:33.506Z,101657.19
2019-03-31T16:49:07.478Z,101665.38
2019-03-31T16:51:41.355Z,101671.19
2019-03-31T16:54:16.514Z,101674.05
2019-03-31T16:56:50.559Z,101669.75
2019-03-31T16:59:24.225Z,101675.42
2019-03-31T17:01:59.487Z,101682.55
2019-03-31T17:04:33.190Z,101672.36
2019-03-31T17:07:07.956Z,101676.73
2019-03-31T17:09:51.320Z,101674.37
2019-03-31T17:12:17.870Z,101677.06
2019-03-31T17:14:52.788Z,101679.77
2019-03-31T17:17:27.175Z,101680.20
2019-03-31T17:20:02.690Z,101682.58
2019-03-31T17:22:36.239Z,101683.93
2019-03-31T17:25:10.192Z,101680.33
2019-03-31T17:27:43.811Z,101678.42
2019-03-31T17:30:22.589Z,101672.88
2019-03-31T17:32:56.542Z,101681.98
2019-03-31T17:35:30.811Z,101686.98
2019-03-31T17:38:05.011Z,101688.59
2019-03-31T17:40:39.684Z,101691.06
2019-03-31T17:43:14.659Z,101694.70
2019-03-31T17:45:51.314Z,101694.83
2019-03-31T17:48:27.991Z,101696.94
2019-03-31T17:51:01.682Z,101700.63
2019-03-31T17:53:38.771Z,101700.39
2019-03-31T17:56:14.647Z,101701.13
2019-03-31T17:58:49.272Z,101702.67
2019-03-31T18:01:22.959Z,101710.18
2019-03-31T18:03:56.662Z,101708.16
2019-03-31T18:06:33.399Z,101713.64
2019-03-31T18:09:10.169Z,101712.49
2019-03-31T18:11:47.912Z,101719.85
2019-03-31T18:14:21.443Z,101713.39
2019-03-31T18:16:57.884Z,101713.47
2019-03-31T18:19:31.699Z,101715.80
2019-03-31T18:22:16.425Z,101720.80
2019-03-31T18:24:41.511Z,101729.02
2019-03-31T18:27:18.516Z,101729.50
2019-03-31T18:29:52.805Z,101732.54
2019-03-31T18:32:28.067Z,101732.77
2019-03-31T18:35:02.312Z,101734.86
2019-03-31T18:37:35.926Z,101737.70
2019-03-31T18:40:12.591Z,101740.08
2019-03-31T18:42:49.583Z,101740.52
2019-03-31T18:45:24.045Z,101742.31
2019-03-31T18:48:03.224Z,101752.20
2019-03-31T18:50:36.835Z,101756.46
2019-03-31T18:53:12.926Z,101757.76
2019-03-31T18:56:08.685Z,101761.51
2019-03-31T18:59:09.854Z,101763.34
2019-03-31T19:01:55.180Z,101763.96
2019-03-31T19:04:39.336Z,101767.58
2019-03-31T19:07:45.408Z,101772.26
2019-03-31T19:10:49.652Z,101774.08
2019-03-31T19:13:38.374Z,101778.80
2019-03-31T19:16:46.232Z,101778.45
2019-03-31T19:19:51.389Z,101785.87
2019-03-31T19:22:56.337Z,101792.71
2019-03-31T19:25:47.675Z,101787.38
2019-03-31T19:28:39.637Z,101787.65
2019-03-31T19:31:23.704Z,101793.41
2019-03-31T19:34:22.601Z,101794.83
2019-03-31T19:37:03.196Z,101801.87
2019-03-31T19:40:08.304Z,101794.86
2019-03-31T19:43:18.708Z,101802.19
2019-03-31T19:46:08.671Z,101805.45
2019-03-31T19:48:48.235Z,101811.19
2019-03-31T19:51:54.918Z,101815.99
2019-03-31T19:55:03.017Z,101818.48
2019-03-31T19:58:02.639Z,101822.23
2019-03-31T20:00:50.446Z,101818.36
2019-03-31T20:03:40.762Z,101833.55
2019-03-31T20:06:39.183Z,101831.86
2019-03-31T20:09:32.083Z,101832.78
2019-03-31T20:12:36.503Z,101840.72
2019-03-31T20:15:40.622Z,101847.70
2019-03-31T20:18:41.113Z,101855.33
2019-03-31T20:21:31.797Z,101852.38
2019-03-31T20:24:18.667Z,101849.02
2019-03-31T20:26:58.553Z,101846.11
2019-03-31T20:29:43.451Z,101847.83
2019-03-31T20:32:41.812Z,101844.59
2019-03-31T20:35:40.031Z,101851.81
2019-03-31T20:38:31.954Z,101857.99
2019-03-31T20:41:27.290Z,101859.86
2019-03-31T20:44:00.914Z,101860.23
2019-03-31T20:46:34.815Z,101853.39
2019-03-31T20:49:08.473Z,101865.13
2019-03-31T20:51:42.135Z,101867.89
2019-03-31T20:54:15.811Z,101865.52
2019-03-31T20:56:49.428Z,101865.05
2019-03-31T20:59:24.060Z,101870.46
2019-03-31T21:01:58.097Z,101878.96
2019-03-31T21:04:31.671Z,101876.47
2019-03-31T21:07:05.277Z,101879.17
2019-03-31T21:09:45.268Z,101878.84
2019-03-31T21:12:14.251Z,101877.14
2019-03-31T21:14:47.939Z,101884.00
2019-03-31T21:17:23.326Z,101884.98
2019-03-31T21:19:57.337Z,101891.44
2019-03-31T21:22:31.001Z,101879.93
2019-03-31T21:25:04.789Z,101886.41
2019-03-31T21:27:38.599Z,101891.61
2019-03-31T21:30:12.879Z,101902.78
2019-03-31T21:32:46.748Z,101899.87
2019-03-31T21:35:20.761Z,101900.30
2019-03-31T21:37:54.466Z,101900.36
2019-03-31T21:40:28.067Z,101906.45
2019-03-31T21:43:02.875Z,101912.00
2019-03-31T21:45:36.444Z,101912.40
2019-03-31T21:48:10.018Z,101914.98
2019-03-31T21:50:45.137Z,101915.43
2019-03-31T21:53:18.844Z,101916.73
2019-03-31T21:55:52.979Z,101918.00
2019-03-31T21:58:27.688Z,101920.22
2019-03-31T22:01:03.338Z,101913.80
2019-03-31T22:03:36.900Z,101905.25
2019-03-31T22:06:10.511Z,101908.27
2019-03-31T22:08:44.256Z,101906.56
2019-03-31T22:11:21.144Z,101913.86
2019-03-31T22:13:56.061Z,101909.97
2019-03-31T22:16:29.770Z,101916.84
2019-03-31T22:19:03.680Z,101919.41
2019-03-31T22:21:38.675Z,101914.75
2019-03-31T22:24:12.363Z,101918.20
2019-03-31T22:26:46.065Z,101912.61
2019-03-31T22:29:19.867Z,101916.89
2019-03-31T22:31:54.016Z,101913.05
2019-03-31T22:34:30.537Z,101914.34
2019-03-31T22:37:05.350Z,101916.92
2019-03-31T22:39:39.391Z,101916.92
2019-03-31T22:42:13.076Z,101918.63
2019-03-31T22:44:46.735Z,101910.95
2019-03-31T22:47:20.992Z,101910.95
2019-03-31T22:49:54.806Z,101918.69
2019-03-31T22:52:28.501Z,101916.98
2019-03-31T22:55:02.254Z,101916.95
2019-03-31T22:57:37.038Z,101915.67
2019-03-31T23:00:17.290Z,101916.95
2019-03-31T23:02:52.025Z,101907.95
2019-03-31T23:05:25.766Z,101917.83
2019-03-31T23:08:00.870Z,101920.38
2019-03-31T23:10:34.471Z,101913.97
2019-03-31T23:13:11.043Z,101912.70
2019-03-31T23:15:44.737Z,101917.83
2019-03-31T23:18:18.276Z,101908.42
2019-03-31T23:20:51.859Z,101915.26
2019-03-31T23:23:25.437Z,101924.23
2019-03-31T23:25:59.169Z,101913.12
2019-03-31T23:28:32.767Z,101916.12
2019-03-31T23:31:06.374Z,101918.23
2019-03-31T23:33:40.204Z,101921.24
2019-03-31T23:36:13.828Z,101922.52
2019-03-31T23:38:47.360Z,101926.37
2019-03-31T23:41:20.947Z,101922.95
2019-03-31T23:43:56.432Z,101926.38
2019-03-31T23:46:30.649Z,101932.34
2019-03-31T23:49:04.355Z,101925.50
2019-03-31T23:51:39.290Z,101934.05
2019-03-31T23:54:13.036Z,101937.83
2019-03-31T23:56:46.812Z,101936.11
2019-03-31T23:59:21.529Z,101926.73
